createdAt,value
2023-01-02T00:00:57.557Z,64.68
2023-01-02T00:03:24.103Z,64.36
2023-01-02T00:05:50.446Z,64.20
2023-01-02T00:08:16.777Z,64.52
2023-01-02T00:10:43.104Z,64.13
2023-01-02T00:13:09.437Z,63.74
2023-01-02T00:15:35.855Z,63.33
2023-01-02T00:18:02.164Z,63.51
2023-01-02T00:20:28.501Z,63.20
2023-01-02T00:22:54.805Z,63.13
2023-01-02T00:25:21.118Z,63.29
2023-01-02T00:27:47.427Z,63.23
2023-01-02T00:30:13.771Z,63.11
2023-01-02T00:32:40.105Z,63.56
2023-01-02T00:35:06.423Z,63.41
2023-01-02T00:37:32.755Z,63.18
2023-01-02T00:39:59.064Z,62.93
2023-01-02T00:42:25.433Z,63.05
2023-01-02T00:44:51.743Z,62.72
2023-01-02T00:47:18.059Z,62.37
2023-01-02T00:49:44.368Z,62.15
2023-01-02T00:52:10.690Z,62.05
2023-01-02T00:54:37.008Z,62.02
2023-01-02T00:57:03.362Z,61.91
2023-01-02T00:59:29.769Z,61.75
2023-01-02T01:01:56.151Z,61.44
2023-01-02T01:04:22.586Z,61.49
2023-01-02T01:06:48.984Z,61.32
2023-01-02T01:09:15.332Z,61.17
2023-01-02T01:11:41.678Z,61.63
2023-01-02T01:14:08.030Z,61.31
2023-01-02T01:16:34.460Z,61.37
2023-01-02T01:19:00.851Z,61.36
2023-01-02T01:21:27.279Z,61.16
2023-01-02T01:23:53.620Z,61.01
2023-01-02T01:26:20.469Z,61.12
2023-01-02T01:28:46.797Z,61.33
2023-01-02T01:31:13.202Z,61.35
2023-01-02T01:33:39.590Z,61.11
2023-01-02T01:36:05.922Z,61.42
2023-01-02T01:38:32.243Z,61.37
2023-01-02T01:40:58.579Z,61.17
2023-01-02T01:43:24.893Z,61.10
2023-01-02T01:45:51.236Z,61.02
2023-01-02T01:48:17.577Z,61.02
2023-01-02T01:50:43.955Z,60.79
2023-01-02T01:53:10.279Z,60.77
2023-01-02T01:55:36.601Z,61.02
2023-01-02T01:58:02.931Z,59.71
2023-01-02T02:00:29.246Z,59.75
2023-01-02T02:02:55.664Z,59.51
2023-01-02T02:05:22.060Z,59.46
2023-01-02T02:07:48.387Z,59.63
2023-01-02T02:10:14.707Z,59.97
2023-01-02T02:12:41.115Z,60.06
2023-01-02T02:15:07.425Z,60.05
2023-01-02T02:17:33.802Z,60.33
2023-01-02T02:20:00.271Z,60.12
2023-01-02T02:22:26.611Z,60.53
2023-01-02T02:24:52.944Z,60.33
2023-01-02T02:27:19.306Z,60.49
2023-01-02T02:29:45.639Z,60.41
2023-01-02T02:32:12.060Z,60.59
2023-01-02T02:34:38.399Z,60.81
2023-01-02T02:37:04.719Z,60.58
2023-01-02T02:39:31.036Z,60.17
2023-01-02T02:41:57.835Z,60.46
2023-01-02T02:44:24.185Z,60.45
2023-01-02T02:46:50.500Z,59.89
2023-01-02T02:49:16.858Z,59.47
2023-01-02T02:51:43.165Z,59.66
2023-01-02T02:54:09.673Z,60.04
2023-01-02T02:56:35.977Z,60.07
2023-01-02T02:59:02.298Z,59.98
2023-01-02T03:01:30.819Z,59.88
2023-01-02T03:03:57.394Z,60.03
2023-01-02T03:06:23.718Z,60.43
2023-01-02T03:08:50.046Z,60.53
2023-01-02T03:11:16.388Z,60.32
2023-01-02T03:13:42.742Z,60.00
2023-01-02T03:16:09.103Z,60.47
2023-01-02T03:18:35.404Z,60.19
2023-01-02T03:21:01.711Z,59.96
2023-01-02T03:23:28.053Z,60.09
2023-01-02T03:25:54.427Z,60.34
2023-01-02T03:28:20.745Z,60.11
2023-01-02T03:30:47.085Z,60.13
2023-01-02T03:33:13.388Z,60.11
2023-01-02T03:35:39.739Z,60.92
2023-01-02T03:38:06.044Z,60.69
2023-01-02T03:40:32.356Z,61.23
2023-01-02T03:42:58.695Z,60.56
2023-01-02T03:45:25.014Z,60.61
2023-01-02T03:47:51.360Z,60.83
2023-01-02T03:50:17.685Z,60.79
2023-01-02T03:52:44.009Z,61.01
2023-01-02T03:55:10.340Z,60.77
2023-01-02T03:57:36.639Z,60.58
2023-01-02T04:00:03.007Z,60.52
2023-01-02T04:02:29.501Z,60.34
2023-01-02T04:04:55.982Z,60.64
2023-01-02T04:07:22.325Z,60.11
2023-01-02T04:09:48.673Z,60.17
2023-01-02T04:12:14.986Z,59.86
2023-01-02T04:14:41.291Z,59.85
2023-01-02T04:17:10.757Z,59.56
2023-01-02T04:19:37.058Z,59.66
2023-01-02T04:22:04.911Z,59.51
2023-01-02T04:24:31.204Z,59.93
2023-01-02T04:26:57.527Z,59.83
2023-01-02T04:29:23.865Z,60.21
2023-01-02T04:31:50.185Z,60.01
2023-01-02T04:34:16.566Z,60.27
2023-01-02T04:36:42.878Z,60.23
2023-01-02T04:39:09.235Z,60.09
2023-01-02T04:41:35.565Z,59.67
2023-01-02T04:44:01.931Z,60.01
2023-01-02T04:46:28.326Z,59.62
2023-01-02T04:48:54.992Z,60.18
2023-01-02T04:51:21.323Z,60.13
2023-01-02T04:53:47.641Z,60.33
2023-01-02T04:56:14.245Z,60.50
2023-01-02T04:58:40.582Z,60.43
2023-01-02T05:01:06.909Z,60.65
2023-01-02T05:03:33.264Z,60.91
2023-01-02T05:05:59.598Z,61.13
2023-01-02T05:08:25.932Z,61.49
2023-01-02T05:10:52.264Z,61.84
2023-01-02T05:13:18.598Z,61.96
2023-01-02T05:15:45.006Z,62.47
2023-01-02T05:18:11.340Z,62.57
2023-01-02T05:20:37.653Z,62.87
2023-01-02T05:23:22.936Z,62.72
2023-01-02T05:25:49.267Z,63.09
2023-01-02T05:28:15.571Z,63.21
2023-01-02T05:30:41.882Z,63.42
2023-01-02T05:33:08.208Z,63.61
2023-01-02T05:35:34.540Z,63.74
2023-01-02T05:38:00.859Z,63.70
2023-01-02T05:40:27.172Z,63.78
2023-01-02T05:42:53.488Z,63.72
2023-01-02T05:45:19.807Z,63.75
2023-01-02T05:47:46.109Z,63.81
2023-01-02T05:50:12.420Z,63.81
2023-01-02T05:52:44.921Z,63.93
2023-01-02T05:55:12.052Z,63.48
2023-01-02T05:57:38.370Z,63.51
2023-01-02T06:00:04.774Z,63.18
2023-01-02T06:02:31.261Z,63.50
2023-01-02T06:04:57.635Z,63.27
2023-01-02T06:07:23.953Z,63.20
2023-01-02T06:09:50.286Z,63.32
2023-01-02T06:12:16.629Z,63.69
2023-01-02T06:14:42.954Z,63.34
2023-01-02T06:17:09.280Z,63.62
2023-01-02T06:19:35.617Z,63.69
2023-01-02T06:22:01.925Z,64.09
2023-01-02T06:24:28.277Z,64.48
2023-01-02T06:26:55.824Z,64.45
2023-01-02T06:29:22.148Z,64.89
2023-01-02T06:31:51.516Z,65.18
2023-01-02T06:34:18.007Z,65.25
2023-01-02T06:36:44.335Z,65.55
2023-01-02T06:39:10.642Z,65.65
2023-01-02T06:41:36.989Z,65.99
2023-01-02T06:44:03.307Z,66.19
2023-01-02T06:46:29.637Z,66.31
2023-01-02T06:48:55.945Z,66.03
2023-01-02T06:51:22.294Z,66.14
2023-01-02T06:53:48.689Z,66.21
2023-01-02T06:56:15.003Z,67.00
2023-01-02T06:58:41.365Z,66.81
2023-01-02T07:01:07.734Z,66.94
2023-01-02T07:03:34.074Z,67.22
2023-01-02T07:06:00.441Z,67.46
2023-01-02T07:08:26.749Z,67.69
2023-01-02T07:10:53.257Z,67.86
2023-01-02T07:13:19.618Z,68.47
2023-01-02T07:15:45.946Z,68.40
2023-01-02T07:18:12.281Z,68.42
2023-01-02T07:20:38.612Z,68.28
2023-01-02T07:23:04.975Z,68.87
2023-01-02T07:25:31.301Z,69.06
2023-01-02T07:27:57.678Z,69.46
2023-01-02T07:30:23.979Z,69.28
2023-01-02T07:32:50.285Z,69.55
2023-01-02T07:35:16.592Z,69.67
2023-01-02T07:37:42.892Z,69.37
2023-01-02T07:40:09.196Z,69.58
2023-01-02T07:42:35.500Z,69.69
2023-01-02T07:45:01.830Z,69.41
2023-01-02T07:47:28.178Z,69.84
2023-01-02T07:49:54.500Z,69.71
2023-01-02T07:52:20.805Z,69.19
2023-01-02T07:54:47.198Z,69.40
2023-01-02T07:57:13.727Z,69.56
2023-01-02T07:59:40.092Z,69.32
2023-01-02T08:02:06.543Z,69.22
2023-01-02T08:04:33.000Z,69.71
2023-01-02T08:06:59.380Z,69.11
2023-01-02T08:09:25.707Z,69.30
2023-01-02T08:11:52.025Z,69.69
2023-01-02T08:14:23.192Z,69.58
2023-01-02T08:16:50.075Z,69.50
2023-01-02T08:19:16.541Z,69.61
2023-01-02T08:21:42.922Z,69.83
2023-01-02T08:24:09.299Z,69.80
2023-01-02T08:26:35.637Z,69.66
2023-01-02T08:29:02.159Z,69.52
2023-01-02T08:31:28.520Z,69.61
2023-01-02T08:33:54.913Z,69.39
2023-01-02T08:36:21.268Z,69.29
2023-01-02T08:38:47.670Z,68.97
2023-01-02T08:41:15.393Z,68.58
2023-01-02T08:43:41.764Z,68.63
2023-01-02T08:46:08.133Z,68.82
2023-01-02T08:48:34.553Z,68.56
2023-01-02T08:51:00.860Z,68.36
2023-01-02T08:53:27.207Z,68.44
2023-01-02T08:55:53.532Z,68.89
2023-01-02T08:58:19.855Z,68.74
2023-01-02T09:00:46.197Z,68.93
2023-01-02T09:03:12.704Z,68.73
2023-01-02T09:05:39.115Z,68.99
2023-01-02T09:08:05.420Z,68.92
2023-01-02T09:10:31.742Z,68.75
2023-01-02T09:12:59.275Z,68.77
2023-01-02T09:15:25.759Z,68.52
2023-01-02T09:17:52.262Z,68.83
2023-01-02T09:20:18.709Z,68.70
2023-01-02T09:22:45.017Z,68.75
2023-01-02T09:25:11.332Z,68.58
2023-01-02T09:27:37.672Z,68.43
2023-01-02T09:30:04.024Z,68.72
2023-01-02T09:32:30.364Z,68.08
2023-01-02T09:34:56.677Z,67.93
2023-01-02T09:37:23.015Z,67.34
2023-01-02T09:39:49.340Z,67.77
2023-01-02T09:42:15.683Z,67.71
2023-01-02T09:44:42.086Z,68.35
2023-01-02T09:47:08.389Z,67.77
2023-01-02T09:49:34.709Z,68.04
2023-01-02T09:52:01.046Z,67.50
2023-01-02T09:54:27.364Z,67.01
2023-01-02T09:56:53.732Z,67.45
2023-01-02T09:59:20.039Z,67.50
2023-01-02T10:01:46.387Z,67.35
2023-01-02T10:04:12.750Z,67.31
2023-01-02T10:06:39.258Z,67.38
2023-01-02T10:09:05.573Z,67.36
2023-01-02T10:11:31.915Z,67.66
2023-01-02T10:16:44.560Z,67.42
2023-01-02T10:19:10.898Z,67.43
2023-01-02T10:21:37.291Z,66.87
2023-01-02T10:24:03.678Z,67.71
2023-01-02T10:26:30.838Z,67.26
2023-01-02T10:28:57.740Z,67.08
2023-01-02T10:31:24.108Z,67.60
2023-01-02T10:33:50.429Z,67.13
2023-01-02T10:36:16.769Z,67.07
2023-01-02T10:38:43.099Z,67.12
2023-01-02T10:41:09.430Z,66.88
2023-01-02T10:43:37.172Z,67.02
2023-01-02T10:46:03.601Z,66.91
2023-01-02T10:48:29.919Z,67.38
2023-01-02T10:50:56.245Z,67.21
2023-01-02T10:53:22.697Z,66.88
2023-01-02T10:55:49.036Z,67.00
2023-01-02T10:58:15.348Z,67.31
2023-01-02T11:00:41.717Z,67.06
2023-01-02T11:03:08.159Z,66.77
2023-01-02T11:05:34.487Z,66.57
2023-01-02T11:08:00.822Z,66.76
2023-01-02T11:10:27.133Z,67.70
2023-01-02T11:12:53.586Z,67.25
2023-01-02T11:15:19.964Z,67.24
2023-01-02T11:17:46.279Z,67.77
2023-01-02T11:20:12.615Z,67.72
2023-01-02T11:22:38.929Z,67.65
2023-01-02T11:25:05.654Z,67.74
2023-01-02T11:27:31.958Z,67.78
2023-01-02T11:29:58.264Z,67.11
2023-01-02T11:32:24.579Z,67.49
2023-01-02T11:34:51.120Z,67.42
2023-01-02T11:37:17.509Z,67.17
2023-01-02T11:39:43.903Z,66.99
2023-01-02T11:42:29.207Z,67.23
2023-01-02T11:44:55.504Z,67.74
2023-01-02T11:47:21.942Z,67.61
2023-01-02T11:49:48.934Z,68.25
2023-01-02T11:52:15.268Z,67.86
2023-01-02T11:54:41.759Z,67.77
2023-01-02T11:57:08.092Z,67.75
2023-01-02T11:59:34.418Z,67.95
2023-01-02T12:02:00.957Z,67.78
2023-01-02T12:04:27.514Z,67.12
2023-01-02T12:06:53.857Z,66.79
2023-01-02T12:09:20.211Z,66.67
2023-01-02T12:11:46.557Z,66.12
2023-01-02T12:14:12.909Z,65.95
2023-01-02T12:16:39.291Z,66.22
2023-01-02T12:19:05.685Z,65.77
2023-01-02T12:21:31.992Z,65.87
2023-01-02T12:23:58.498Z,65.79
2023-01-02T12:26:26.119Z,65.08
2023-01-02T12:28:52.434Z,65.12
2023-01-02T12:31:18.862Z,64.34
2023-01-02T12:33:45.256Z,64.62
2023-01-02T12:36:11.635Z,65.05
2023-01-02T12:38:37.989Z,64.55
2023-01-02T12:41:04.327Z,64.57
2023-01-02T12:43:30.670Z,63.87
2023-01-02T12:45:57.032Z,64.18
2023-01-02T12:48:23.381Z,63.83
2023-01-02T12:50:49.693Z,63.88
2023-01-02T12:53:16.031Z,64.11
2023-01-02T12:55:42.367Z,64.35
2023-01-02T12:58:08.679Z,64.09
2023-01-02T13:00:34.985Z,63.86
2023-01-02T13:03:01.636Z,64.14
2023-01-02T13:05:27.980Z,63.99
2023-01-02T13:07:54.347Z,64.29
2023-01-02T13:10:20.673Z,64.60
2023-01-02T13:12:47.001Z,64.51
2023-01-02T13:15:13.355Z,64.57
2023-01-02T13:17:39.739Z,64.22
2023-01-02T13:20:06.055Z,64.30
2023-01-02T13:22:32.404Z,64.27
2023-01-02T13:24:58.719Z,64.35
2023-01-02T13:27:25.052Z,63.80
2023-01-02T13:29:51.372Z,64.02
2023-01-02T13:32:17.721Z,63.61
2023-01-02T13:34:44.079Z,64.04
2023-01-02T13:37:10.398Z,63.95
2023-01-02T13:39:36.721Z,64.78
2023-01-02T13:42:22.081Z,64.24
2023-01-02T13:44:48.399Z,64.47
2023-01-02T13:47:20.744Z,64.36
2023-01-02T13:49:55.510Z,65.20
2023-01-02T13:52:21.846Z,64.89
2023-01-02T13:54:48.165Z,64.87
2023-01-02T13:57:14.459Z,64.99
2023-01-02T13:59:41.703Z,64.95
2023-01-02T14:02:09.874Z,64.87
2023-01-02T14:04:36.345Z,64.86
2023-01-02T14:07:02.684Z,64.62
2023-01-02T14:09:28.985Z,64.82
2023-01-02T14:11:57.515Z,64.84
2023-01-02T14:14:24.124Z,64.86
2023-01-02T14:16:50.512Z,64.87
2023-01-02T14:19:16.975Z,64.86
2023-01-02T14:21:43.297Z,64.94
2023-01-02T14:24:16.933Z,65.08
2023-01-02T14:26:44.926Z,65.01
2023-01-02T14:29:11.256Z,65.15
2023-01-02T14:31:37.683Z,65.39
2023-01-02T14:34:04.109Z,65.51
2023-01-02T14:36:30.432Z,65.69
2023-01-02T14:38:56.766Z,65.93
2023-01-02T14:41:42.004Z,65.81
2023-01-02T14:44:08.346Z,65.64
2023-01-02T14:46:34.748Z,65.89
2023-01-02T14:49:01.111Z,66.14
2023-01-02T14:51:27.427Z,66.11
2023-01-02T14:53:53.753Z,66.03
2023-01-02T14:56:20.090Z,66.25
2023-01-02T14:58:46.764Z,66.44
2023-01-02T15:01:13.276Z,66.92
2023-01-02T15:03:39.845Z,66.64
2023-01-02T15:06:06.275Z,66.70
2023-01-02T15:08:32.601Z,66.56
2023-01-02T15:10:59.008Z,66.54
2023-01-02T15:13:25.329Z,66.68
2023-01-02T15:15:53.649Z,66.35
2023-01-02T15:18:20.430Z,66.37
2023-01-02T15:20:46.761Z,66.66
2023-01-02T15:23:13.074Z,66.48
2023-01-02T15:25:39.511Z,66.62
2023-01-02T15:28:05.885Z,66.74
2023-01-02T15:30:34.597Z,66.58
2023-01-02T15:33:00.916Z,66.93
2023-01-02T15:35:27.256Z,67.23
2023-01-02T15:37:53.569Z,67.27
2023-01-02T15:40:19.915Z,67.24
2023-01-02T15:43:05.227Z,67.29
2023-01-02T15:45:31.577Z,67.80
2023-01-02T15:47:57.938Z,68.08
2023-01-02T15:50:24.304Z,67.03
2023-01-02T15:52:50.645Z,66.75
2023-01-02T15:55:17.008Z,66.78
2023-01-02T15:57:43.341Z,66.69
2023-01-02T16:00:09.650Z,66.61
2023-01-02T16:02:36.127Z,67.05
2023-01-02T16:05:02.512Z,67.36
2023-01-02T16:07:28.859Z,67.38
2023-01-02T16:09:55.244Z,67.03
2023-01-02T16:12:21.613Z,67.29
2023-01-02T16:14:49.451Z,67.29
2023-01-02T16:17:15.784Z,67.44
2023-01-02T16:19:42.118Z,67.56
2023-01-02T16:22:08.528Z,67.62
2023-01-02T16:24:35.407Z,67.47
2023-01-02T16:27:02.077Z,67.70
2023-01-02T16:29:28.419Z,69.07
2023-01-02T16:31:54.825Z,68.78
2023-01-02T16:34:21.187Z,68.64
2023-01-02T16:36:47.505Z,68.40
2023-01-02T16:39:13.855Z,68.41
2023-01-02T16:41:44.981Z,68.22
2023-01-02T16:44:12.634Z,67.62
2023-01-02T16:46:38.975Z,67.63
2023-01-02T16:49:05.685Z,67.68
2023-01-02T16:51:32.048Z,67.67
2023-01-02T16:53:58.373Z,67.68
2023-01-02T16:56:24.722Z,68.29
2023-01-02T16:58:51.048Z,68.48
2023-01-02T17:01:20.785Z,69.14
2023-01-02T17:03:47.314Z,69.60
2023-01-02T17:06:13.708Z,69.10
2023-01-02T17:08:40.114Z,69.39
2023-01-02T17:11:06.419Z,68.85
2023-01-02T17:13:32.719Z,68.28
2023-01-02T17:15:59.083Z,67.77
2023-01-02T17:18:25.621Z,66.17
2023-01-02T17:20:51.943Z,65.79
2023-01-02T17:23:19.600Z,64.20
2023-01-02T17:25:46.384Z,63.49
2023-01-02T17:28:12.716Z,61.92
2023-01-02T17:30:39.096Z,61.79
2023-01-02T17:33:05.404Z,59.98
2023-01-02T17:35:31.738Z,59.91
2023-01-02T17:37:58.099Z,60.13
2023-01-02T17:40:24.429Z,59.80
2023-01-02T17:42:50.764Z,61.96
2023-01-02T17:45:17.089Z,63.12
2023-01-02T17:48:05.640Z,63.81
2023-01-02T17:50:29.784Z,64.46
2023-01-02T17:52:56.168Z,64.85
2023-01-02T17:55:22.488Z,64.93
2023-01-02T17:57:48.883Z,65.58
2023-01-02T18:00:15.230Z,65.69
2023-01-02T18:02:41.665Z,67.19
2023-01-02T18:05:08.089Z,67.55
2023-01-02T18:07:34.406Z,67.16
2023-01-02T18:10:07.920Z,67.75
2023-01-02T18:12:37.871Z,66.97
2023-01-02T18:15:04.376Z,66.68
2023-01-02T18:17:30.685Z,66.36
2023-01-02T18:19:57.009Z,65.88
2023-01-02T18:22:26.425Z,65.10
2023-01-02T18:24:52.835Z,64.08
2023-01-02T18:27:19.187Z,63.59
2023-01-02T18:29:45.544Z,62.71
2023-01-02T18:32:11.898Z,62.39
2023-01-02T18:34:59.274Z,61.99
2023-01-02T18:37:28.189Z,61.04
2023-01-02T18:39:55.101Z,61.54
2023-01-02T18:42:21.457Z,61.65
2023-01-02T18:44:48.047Z,60.05
2023-01-02T18:47:14.378Z,59.92
2023-01-02T18:49:40.815Z,59.30
2023-01-02T18:52:07.201Z,57.85
2023-01-02T18:54:33.550Z,57.97
2023-01-02T18:56:59.907Z,58.24
2023-01-02T18:59:26.221Z,57.78
2023-01-02T19:01:52.904Z,57.60
2023-01-02T19:04:27.394Z,58.08
2023-01-02T19:06:54.797Z,57.40
2023-01-02T19:09:21.225Z,58.22
2023-01-02T19:12:06.325Z,59.24
2023-01-02T19:14:32.654Z,58.89
2023-01-02T19:16:59.018Z,58.02
2023-01-02T19:19:26.023Z,58.17
2023-01-02T19:21:52.461Z,58.76
2023-01-02T19:24:19.039Z,58.95
2023-01-02T19:26:45.469Z,59.49
2023-01-02T19:29:11.808Z,59.28
2023-01-02T19:31:38.142Z,58.83
2023-01-02T19:34:04.448Z,58.57
2023-01-02T19:36:30.880Z,58.83
2023-01-02T19:38:57.196Z,58.51
2023-01-02T19:41:43.481Z,58.48
2023-01-02T19:44:09.820Z,58.53
2023-01-02T19:46:36.203Z,58.08
2023-01-02T19:49:02.529Z,58.12
2023-01-02T19:51:32.242Z,58.91
2023-01-02T19:54:03.736Z,58.86
2023-01-02T19:56:30.721Z,59.02
2023-01-02T19:58:57.050Z,59.41
2023-01-02T20:01:23.556Z,59.54
2023-01-02T20:03:50.045Z,59.48
2023-01-02T20:06:16.425Z,59.15
2023-01-02T20:08:43.950Z,59.65
2023-01-02T20:11:30.264Z,59.40
2023-01-02T20:13:56.588Z,59.52
2023-01-02T20:16:22.940Z,59.32
2023-01-02T20:18:49.265Z,61.52
2023-01-02T20:21:15.575Z,63.66
2023-01-02T20:23:41.883Z,65.35
2023-01-02T20:26:08.503Z,66.69
2023-01-02T20:28:34.915Z,70.14
2023-01-02T20:31:01.264Z,73.75
2023-01-02T20:33:27.618Z,77.83
2023-01-02T20:35:53.945Z,80.99
2023-01-02T20:38:20.261Z,83.62
2023-01-02T20:40:46.646Z,87.58
2023-01-02T20:43:12.978Z,90.05
2023-01-02T20:45:39.335Z,92.19
2023-01-02T20:48:09.147Z,93.99
2023-01-02T20:50:35.454Z,95.15
2023-01-02T20:53:02.328Z,95.75
2023-01-02T20:55:28.701Z,97.74
2023-01-02T20:57:55.118Z,99.13
2023-01-02T21:00:21.513Z,99.88
2023-01-02T21:02:47.967Z,100.00
2023-01-02T21:05:14.515Z,100.00
2023-01-02T21:07:40.836Z,100.00
2023-01-02T21:10:07.142Z,100.00
2023-01-02T21:12:52.369Z,100.00
2023-01-02T21:15:37.679Z,100.00
2023-01-02T21:18:04.050Z,100.00
2023-01-02T21:20:30.354Z,100.00
2023-01-02T21:22:56.659Z,100.00
2023-01-02T21:25:22.958Z,100.00
2023-01-02T21:27:49.284Z,100.00
2023-01-02T21:30:15.622Z,100.00
2023-01-02T21:32:41.928Z,100.00
2023-01-02T21:35:08.237Z,100.00
2023-01-02T21:37:34.554Z,100.00
2023-01-02T21:40:01.303Z,100.00
2023-01-02T21:42:27.620Z,100.00
2023-01-02T21:44:53.940Z,100.00
2023-01-02T21:47:20.308Z,100.00
2023-01-02T21:49:46.636Z,100.00
2023-01-02T21:52:12.952Z,100.00
2023-01-02T21:54:39.287Z,100.00
2023-01-02T21:57:05.621Z,100.00
2023-01-02T21:59:31.934Z,100.00
2023-01-02T22:02:00.123Z,100.00
2023-01-02T22:04:26.607Z,100.00
2023-01-02T22:09:39.226Z,100.00
2023-01-02T22:12:07.296Z,100.00
2023-01-02T22:14:33.821Z,100.00
2023-01-02T22:17:00.178Z,100.00
2023-01-02T22:19:26.494Z,100.00
2023-01-02T22:21:52.798Z,100.00
2023-01-02T22:24:19.184Z,100.00
2023-01-02T22:26:45.520Z,99.84
2023-01-02T22:29:11.845Z,99.67
2023-01-02T22:31:38.271Z,100.00
2023-01-02T22:34:04.673Z,99.92
2023-01-02T22:36:31.635Z,98.31
2023-01-02T22:39:27.041Z,97.66
2023-01-02T22:41:47.415Z,97.21
2023-01-02T22:44:13.727Z,99.75
2023-01-02T22:46:40.146Z,99.15
2023-01-02T22:49:06.510Z,99.47
2023-01-02T22:52:05.497Z,99.81
2023-01-02T22:54:19.125Z,100.00
2023-01-02T22:56:45.468Z,100.00
2023-01-02T22:59:11.777Z,100.00
2023-01-02T23:01:38.313Z,100.00
2023-01-02T23:04:04.714Z,100.00
2023-01-02T23:06:31.114Z,100.00
2023-01-02T23:08:57.437Z,100.00
2023-01-02T23:11:23.789Z,100.00
2023-01-02T23:13:56.018Z,100.00
2023-01-02T23:16:41.924Z,100.00
2023-01-02T23:19:14.485Z,99.13
2023-01-02T23:21:42.208Z,97.99
2023-01-02T23:24:08.601Z,98.04
2023-01-02T23:26:34.950Z,98.08
2023-01-02T23:29:09.045Z,97.33
2023-01-02T23:31:35.671Z,96.26
2023-01-02T23:34:02.030Z,96.03
2023-01-02T23:36:28.446Z,96.25
2023-01-02T23:38:54.741Z,96.18
2023-01-02T23:41:21.111Z,95.88
2023-01-02T23:43:47.449Z,95.36
2023-01-02T23:46:13.857Z,95.20
2023-01-02T23:48:40.321Z,95.41
2023-01-02T23:51:06.761Z,95.55
2023-01-02T23:53:33.119Z,94.43
2023-01-02T23:55:59.415Z,94.55
2023-01-02T23:58:25.715Z,95.30
